Airfield :
LOGIN :

Register | Disclaimer

   EN    FR    IT 

 










Legend :    VFR   Marginal VFR   IFR   Intensive IFR   Very Intensive IFR
Visi :
Ceiling :
>= 8 km
>= 3000ft
5 to 8 km
1000 to 3000 ft
1500m to 5 km
500 to 1000 ft
800 to 1500m
200 to 500 ft
< 800m
< 200 ft
Symbols :   Thunderstorms  Fog  Heavy snow  Heavy precipitations  Wind > 20 kt
SIGMETs :     Misc.  Thunderstorms  Icing  Turbulence  Mountain Waves  Volcanic Ashes







- Airport Elevation : 74 ft
- IATA code : EIN


EHEH - Eindhoven

CURRENT METAR :
  • 251725Z AUTO 35006KT 290V040 9999 NCD 23/11 Q1024 BLU 34006KT CAVOK

EXPIRED METARs :
  • 251655Z AUTO 34005KT 290V060 9999 NCD 23/11 Q1024 BLU 34006KT CAVOK RMK CB INFO NOT AVBL
  • 251625Z AUTO 33006KT 260V070 9999 NCD 23/10 Q1024 BLU 34006KT CAVOK RMK CB INFO NOT AVBL
  • 251555Z AUTO 34009KT 230V030 9999 NCD 23/10 Q1024 BLU 34006KT 9999 FEW045
  • 251525Z AUTO 35008KT 270V030 9999 NCD 23/10 Q1024 BLU 34006KT 9999 FEW045
  • 251455Z AUTO 34007KT 290V040 9999 NCD 23/10 Q1024 BLU 34006KT 9999 FEW040

TAF TAF EHEH
Valid from the 25 at 12:00 until the 26 at 18:00 UTC


251116Z 2512/2618 35008KT 9999 SCT028
PROB30
TEMPO 2513/2519 36009G19KT
BECMG 2519/2521 34004KT
BECMG 2601/2603 4000 BR
BECMG 2606/2608 9999 NSW SCT015
BECMG 2609/2611 35007G17KT FEW022
No reported NOTAMs for that airfield.



MET'MAP, your aeronautical weather chart ! - Copyright ORBIFLY December 2007 - Disclaimer

ORBIFLY MET'MAP TEAM :

Programming & Development : Alexandra Zaïnal
Concept & Development : Baudouin d'Aumeries
Co-Development & Prog : Marc-Olivier Méhu
Technical & hardware support : Manuel Goepfert

Contact : metmap@orbifly.com




SOURCES & CREDITS :

   NOAA